createdAt,value
2018-03-23T00:00:51.900Z,8.47
2018-03-23T00:03:19.452Z,8.48
2018-03-23T00:09:07.715Z,8.50
2018-03-23T00:11:41.119Z,8.51
2018-03-23T00:14:13.939Z,8.52
2018-03-23T00:16:41.452Z,8.53
2018-03-23T00:19:09.168Z,8.54
2018-03-23T00:21:38.733Z,8.55
2018-03-23T00:27:09.763Z,8.58
2018-03-23T00:32:22.004Z,8.59
2018-03-23T00:34:49.537Z,8.59
2018-03-23T00:37:17.071Z,8.60
2018-03-23T00:42:30.360Z,8.62
2018-03-23T00:47:50.684Z,8.63
2018-03-23T00:50:21.301Z,8.62
2018-03-23T00:52:48.824Z,8.64
2018-03-23T00:55:16.329Z,8.64
2018-03-23T00:57:44.950Z,8.65
2018-03-23T01:00:25.940Z,8.66
2018-03-23T01:03:10.495Z,8.66
2018-03-23T01:05:38.026Z,8.66
2018-03-23T01:08:05.533Z,8.67
2018-03-23T01:10:33.065Z,8.66
2018-03-23T01:13:00.624Z,8.67
2018-03-23T01:15:30.545Z,8.68
2018-03-23T01:23:33.370Z,8.68
2018-03-23T01:26:00.880Z,8.68
2018-03-23T01:28:28.392Z,8.68
2018-03-23T01:30:55.952Z,8.70
2018-03-23T01:41:08.749Z,8.73
2018-03-23T01:43:36.282Z,8.72
2018-03-23T01:46:03.835Z,8.71
2018-03-23T01:48:31.344Z,8.70
2018-03-23T01:53:45.240Z,8.70
2018-03-23T01:58:48.574Z,8.71
2018-03-23T02:01:16.095Z,8.71
2018-03-23T02:03:43.599Z,8.71
2018-03-23T02:08:58.841Z,8.69
2018-03-23T02:17:20.978Z,8.74
2018-03-23T02:19:48.557Z,8.77
2018-03-23T02:22:16.077Z,8.77
2018-03-23T02:27:29.256Z,8.80
2018-03-23T02:30:08.988Z,8.84
2018-03-23T02:32:36.519Z,8.86
2018-03-23T02:35:04.086Z,8.89
2018-03-23T02:37:31.613Z,8.91
2018-03-23T02:39:59.145Z,8.93
2018-03-23T02:42:26.730Z,8.89
2018-03-23T02:47:33.025Z,8.83
2018-03-23T02:50:01.218Z,8.78
2018-03-23T02:52:28.770Z,8.74
2018-03-23T02:54:56.306Z,8.69
2018-03-23T02:57:23.880Z,8.65
2018-03-23T02:59:55.121Z,8.62
2018-03-23T03:02:26.950Z,8.59
2018-03-23T03:47:19.090Z,8.18
2018-03-23T03:52:47.944Z,8.19
2018-03-23T03:55:15.505Z,8.20
2018-03-23T03:57:43.073Z,8.22
2018-03-23T04:00:10.605Z,8.23
2018-03-23T04:02:38.114Z,8.24
2018-03-23T04:05:05.636Z,8.26
2018-03-23T04:07:33.186Z,8.29
2018-03-23T04:10:04.149Z,8.29
2018-03-23T04:12:35.397Z,8.29
2018-03-23T04:15:02.970Z,8.28
2018-03-23T04:17:30.468Z,8.26
2018-03-23T04:19:57.968Z,8.25
2018-03-23T04:22:25.502Z,8.23
2018-03-23T04:24:53.064Z,8.23
2018-03-23T04:27:22.305Z,8.23
2018-03-23T04:29:49.865Z,8.23
2018-03-23T04:32:17.409Z,8.24
2018-03-23T04:34:44.917Z,8.25
2018-03-23T04:37:12.466Z,8.24
2018-03-23T04:39:40.037Z,8.24
2018-03-23T04:42:09.275Z,8.24
2018-03-23T04:44:36.833Z,8.21
2018-03-23T04:47:05.391Z,8.19
2018-03-23T04:49:32.949Z,8.20
2018-03-23T04:52:00.465Z,8.18
2018-03-23T04:54:27.990Z,8.15
2018-03-23T04:56:55.537Z,8.14
2018-03-23T04:59:23.725Z,8.14
2018-03-23T05:01:57.258Z,8.16
2018-03-23T05:07:25.561Z,8.17
2018-03-23T05:09:53.070Z,8.17
2018-03-23T05:12:20.591Z,8.19
2018-03-23T05:14:48.195Z,8.21
2018-03-23T05:17:15.780Z,8.23
2018-03-23T05:19:43.332Z,8.26
2018-03-23T05:22:26.851Z,8.27
2018-03-23T05:24:54.393Z,8.28
2018-03-23T05:27:21.912Z,8.29
2018-03-23T05:29:49.444Z,8.30
2018-03-23T05:32:16.960Z,8.33
2018-03-23T05:34:44.553Z,8.36
2018-03-23T05:37:15.142Z,8.35
2018-03-23T05:39:42.692Z,8.34
2018-03-23T05:42:10.243Z,8.35
2018-03-23T05:44:37.775Z,8.35
2018-03-23T05:47:05.280Z,8.33
2018-03-23T05:49:32.843Z,8.33
2018-03-23T05:52:00.466Z,8.33
2018-03-23T05:54:28.001Z,8.30
2018-03-23T05:56:55.555Z,8.29
2018-03-23T05:59:23.077Z,8.25
2018-03-23T06:01:50.638Z,8.23
2018-03-23T06:04:18.136Z,8.22
2018-03-23T06:06:45.691Z,8.20
2018-03-23T06:09:13.249Z,8.18
2018-03-23T06:11:40.835Z,8.15
2018-03-23T06:14:08.473Z,8.11
2018-03-23T06:16:35.972Z,8.10
2018-03-23T06:19:03.492Z,8.10
2018-03-23T06:21:30.998Z,8.08
2018-03-23T06:23:58.586Z,8.09
2018-03-23T06:26:26.225Z,8.08
2018-03-23T06:28:54.496Z,8.13
2018-03-23T06:31:22.053Z,8.14
2018-03-23T06:33:49.602Z,8.18
2018-03-23T06:36:17.117Z,8.19
2018-03-23T06:38:44.625Z,8.21
2018-03-23T06:41:12.188Z,8.22
2018-03-23T06:43:39.794Z,8.22
2018-03-23T06:46:07.369Z,8.24
2018-03-23T06:48:35.795Z,8.24
2018-03-23T06:51:03.269Z,8.27
2018-03-23T06:53:30.801Z,8.27
2018-03-23T06:55:58.314Z,8.29
2018-03-23T06:58:25.873Z,8.32
2018-03-23T07:00:53.417Z,8.33
2018-03-23T07:03:21.031Z,8.35
2018-03-23T07:05:48.650Z,8.36
2018-03-23T07:08:16.177Z,8.37
2018-03-23T07:10:43.688Z,8.36
2018-03-23T07:13:11.210Z,8.35
2018-03-23T07:15:38.736Z,8.35
2018-03-23T07:18:09.078Z,8.36
2018-03-23T07:26:19.476Z,8.36
2018-03-23T07:28:47.020Z,8.37
2018-03-23T07:31:14.560Z,8.36
2018-03-23T07:33:42.119Z,8.37
2018-03-23T07:36:13.698Z,8.40
2018-03-23T07:38:41.900Z,8.42
2018-03-23T07:41:10.343Z,8.44
2018-03-23T07:43:37.832Z,8.46
2018-03-23T07:46:05.377Z,8.48
2018-03-23T07:48:32.916Z,8.50
2018-03-23T07:51:00.456Z,8.52
2018-03-23T07:53:28.097Z,8.53
2018-03-23T07:55:55.643Z,8.55
2018-03-23T07:58:23.247Z,8.58
2018-03-23T08:00:50.829Z,8.58
2018-03-23T08:03:18.332Z,8.60
2018-03-23T08:05:45.852Z,8.61
2018-03-23T08:08:13.404Z,8.61
2018-03-23T08:10:41.670Z,8.62
2018-03-23T08:16:05.196Z,8.69
2018-03-23T08:18:32.706Z,8.67
2018-03-23T08:21:00.244Z,8.66
2018-03-23T08:23:27.752Z,8.65
2018-03-23T08:25:55.769Z,8.62
2018-03-23T08:28:25.076Z,8.61
2018-03-23T08:30:53.559Z,8.60
2018-03-23T08:33:21.136Z,8.59
2018-03-23T08:35:48.654Z,8.58
2018-03-23T08:38:16.179Z,8.58
2018-03-23T08:40:43.681Z,8.58
2018-03-23T08:43:11.250Z,8.58
2018-03-23T08:45:38.781Z,8.59
2018-03-23T08:48:06.368Z,8.59
2018-03-23T08:50:34.021Z,8.62
2018-03-23T08:53:01.548Z,8.66
2018-03-23T08:55:29.084Z,8.71
2018-03-23T08:57:56.604Z,8.77
2018-03-23T09:00:24.140Z,8.81
2018-03-23T09:02:53.805Z,8.87
2018-03-23T09:05:22.755Z,8.98
2018-03-23T09:13:17.819Z,9.31
2018-03-23T09:15:45.347Z,9.39
2018-03-23T09:18:13.613Z,9.47
2018-03-23T09:20:42.142Z,9.51
2018-03-23T09:23:10.923Z,9.57
2018-03-23T09:25:38.493Z,9.59
2018-03-23T09:28:06.061Z,9.60
2018-03-23T09:30:33.603Z,9.61
2018-03-23T09:33:01.129Z,9.59
2018-03-23T09:35:28.977Z,9.61
2018-03-23T09:37:59.071Z,9.62
2018-03-23T09:40:26.704Z,9.59
2018-03-23T09:42:57.076Z,9.59
2018-03-23T09:45:24.613Z,9.62
2018-03-23T09:47:52.169Z,9.63
2018-03-23T09:50:19.668Z,9.63
2018-03-23T09:52:47.327Z,9.61
2018-03-23T09:55:14.990Z,9.64
2018-03-23T09:57:42.599Z,9.66
2018-03-23T10:00:13.606Z,9.70
2018-03-23T10:02:41.117Z,9.74
2018-03-23T10:05:08.702Z,9.79
2018-03-23T10:07:37.031Z,9.88
2018-03-23T10:10:04.649Z,9.98
2018-03-23T10:12:33.331Z,10.07
2018-03-23T10:15:01.112Z,10.15
2018-03-23T10:20:20.849Z,10.16
2018-03-23T10:22:48.376Z,10.18
2018-03-23T10:25:15.962Z,10.21
2018-03-23T10:35:57.953Z,10.21
2018-03-23T10:38:25.494Z,10.19
2018-03-23T10:40:53.053Z,10.20
2018-03-23T10:43:20.705Z,10.24
2018-03-23T10:45:53.934Z,10.23
2018-03-23T10:53:42.173Z,10.21
2018-03-23T10:56:09.693Z,10.23
2018-03-23T10:58:37.227Z,10.26
2018-03-23T11:01:10.559Z,10.23
2018-03-23T11:03:41.951Z,10.18
2018-03-23T11:06:21.990Z,10.13
2018-03-23T11:08:50.786Z,10.13
2018-03-23T11:11:18.312Z,10.18
2018-03-23T11:13:45.867Z,10.29
2018-03-23T11:16:13.838Z,10.38
2018-03-23T11:18:42.578Z,10.48
2018-03-23T11:23:59.045Z,10.56
2018-03-23T11:29:22.414Z,10.65
2018-03-23T11:31:49.967Z,10.74
2018-03-23T11:34:17.489Z,10.84
2018-03-23T11:36:45.177Z,10.88
2018-03-23T11:39:13.885Z,10.89
2018-03-23T11:41:49.291Z,10.94
2018-03-23T11:44:29.633Z,11.03
2018-03-23T11:46:57.209Z,11.05
2018-03-23T11:49:24.756Z,10.99
2018-03-23T11:51:52.311Z,10.99
2018-03-23T11:56:57.070Z,11.12
2018-03-23T11:59:30.864Z,11.22
2018-03-23T12:01:58.630Z,11.28
2018-03-23T12:04:26.157Z,11.33
2018-03-23T12:06:53.705Z,11.39
2018-03-23T12:09:21.234Z,11.43
2018-03-23T12:11:54.902Z,11.47
2018-03-23T12:17:13.073Z,11.63
2018-03-23T12:19:40.749Z,11.79
2018-03-23T12:22:08.981Z,11.88
2018-03-23T12:24:36.541Z,11.95
2018-03-23T12:27:04.073Z,11.98
2018-03-23T12:29:42.067Z,12.01
2018-03-23T12:32:14.072Z,12.04
2018-03-23T12:37:22.493Z,12.13
2018-03-23T12:39:50.125Z,12.10
2018-03-23T12:42:17.672Z,12.11
2018-03-23T12:53:33.705Z,12.25
2018-03-23T12:56:01.381Z,12.31
2018-03-23T12:58:28.901Z,12.42
2018-03-23T13:00:56.459Z,12.63
2018-03-23T13:11:54.656Z,12.71
2018-03-23T13:14:22.207Z,12.79
2018-03-23T13:16:49.741Z,12.86
2018-03-23T13:28:15.614Z,13.04
2018-03-23T13:30:43.192Z,13.12
2018-03-23T13:33:10.759Z,13.21
2018-03-23T13:35:38.325Z,13.30
2018-03-23T13:46:38.454Z,13.20
2018-03-23T13:49:06.054Z,13.12
2018-03-23T13:51:33.601Z,13.10
2018-03-23T14:02:47.177Z,13.02
2018-03-23T14:05:14.757Z,12.98
2018-03-23T14:07:42.314Z,12.95
2018-03-23T14:10:09.969Z,12.90
2018-03-23T14:21:46.465Z,12.67
2018-03-23T14:24:14.029Z,12.61
2018-03-23T14:26:41.594Z,12.58
2018-03-23T14:38:18.113Z,12.39
2018-03-23T14:40:45.646Z,12.36
2018-03-23T14:43:13.173Z,12.37
2018-03-23T14:45:45.124Z,12.36
2018-03-23T14:48:18.914Z,12.36
2018-03-23T14:50:49.848Z,12.35
2018-03-23T14:53:19.238Z,12.34
2018-03-23T14:55:46.790Z,12.31
2018-03-23T14:58:14.321Z,12.27
2018-03-23T15:00:41.923Z,12.22
2018-03-23T15:03:14.184Z,12.18
2018-03-23T15:05:45.390Z,12.12
2018-03-23T15:08:14.894Z,12.06
2018-03-23T15:10:47.901Z,12.02
2018-03-23T15:13:15.461Z,11.97
2018-03-23T15:15:42.999Z,11.91
2018-03-23T15:18:10.572Z,11.84
2018-03-23T15:23:14.385Z,11.65
2018-03-23T15:28:16.633Z,11.45
2018-03-23T15:30:44.133Z,11.39
2018-03-23T15:33:11.669Z,11.32
2018-03-23T15:35:39.232Z,11.24
2018-03-23T15:38:06.861Z,11.20
2018-03-23T15:40:35.057Z,11.13
2018-03-23T15:43:02.895Z,11.09
2018-03-23T15:45:30.486Z,11.05
2018-03-23T15:47:57.952Z,11.00
2018-03-23T15:50:25.485Z,10.96
2018-03-23T15:52:53.013Z,10.96
2018-03-23T15:55:23.069Z,10.95
2018-03-23T15:57:50.716Z,10.85
2018-03-23T16:00:19.313Z,10.75
2018-03-23T16:02:46.839Z,10.69
2018-03-23T16:05:14.366Z,10.60
2018-03-23T16:07:41.893Z,10.56
2018-03-23T16:10:09.609Z,10.54
2018-03-23T16:12:37.945Z,10.49
2018-03-23T16:15:07.224Z,10.46
2018-03-23T16:17:34.758Z,10.42
2018-03-23T16:20:02.287Z,10.38
2018-03-23T16:22:29.790Z,10.31
2018-03-23T16:24:57.294Z,10.26
2018-03-23T16:27:24.841Z,10.23
2018-03-23T16:29:53.374Z,10.20
2018-03-23T16:32:21.547Z,10.18
2018-03-23T16:34:51.369Z,10.15
2018-03-23T16:37:20.045Z,10.12
2018-03-23T16:39:47.558Z,10.09
2018-03-23T16:42:15.061Z,10.06
2018-03-23T16:44:42.609Z,10.05
2018-03-23T16:47:10.673Z,10.03
2018-03-23T16:49:38.953Z,10.03
2018-03-23T16:52:06.785Z,10.00
2018-03-23T16:54:35.126Z,10.00
2018-03-23T16:57:02.702Z,9.97
2018-03-23T16:59:30.254Z,9.95
2018-03-23T17:01:57.809Z,9.92
2018-03-23T17:04:26.090Z,9.87
2018-03-23T17:06:54.556Z,9.83
2018-03-23T17:09:23.147Z,9.78
2018-03-23T17:11:50.662Z,9.74
2018-03-23T17:14:18.262Z,9.71
2018-03-23T17:16:45.827Z,9.68
2018-03-23T17:19:13.421Z,9.67
2018-03-23T17:21:41.537Z,9.66
2018-03-23T17:24:10.156Z,9.64
2018-03-23T17:26:38.633Z,9.63
2018-03-23T17:29:06.168Z,9.61
2018-03-23T17:31:33.695Z,9.59
2018-03-23T17:34:01.253Z,9.57
2018-03-23T17:36:28.793Z,9.56
2018-03-23T17:38:57.409Z,9.54
2018-03-23T17:41:26.269Z,9.52
2018-03-23T17:43:55.173Z,9.49
2018-03-23T17:46:22.688Z,9.46
2018-03-23T17:48:50.355Z,9.44
2018-03-23T17:51:17.860Z,9.43
2018-03-23T17:53:45.425Z,9.41
2018-03-23T17:56:13.481Z,9.39
2018-03-23T17:58:42.253Z,9.36
2018-03-23T18:01:11.410Z,9.33
2018-03-23T18:03:40.064Z,9.31
2018-03-23T18:06:07.631Z,9.29
2018-03-23T18:08:35.170Z,9.27
2018-03-23T18:11:02.712Z,9.24
2018-03-23T18:13:33.079Z,9.21
2018-03-23T18:16:03.241Z,9.17
2018-03-23T18:18:31.173Z,9.14
2018-03-23T18:20:59.338Z,9.10
2018-03-23T18:23:26.962Z,9.07
2018-03-23T18:25:54.510Z,9.03
2018-03-23T18:28:22.083Z,9.00
2018-03-23T18:30:57.830Z,8.98
2018-03-23T18:33:30.238Z,8.96
2018-03-23T18:36:03.058Z,8.93
2018-03-23T18:38:30.637Z,8.89
2018-03-23T18:40:58.193Z,8.88
2018-03-23T18:43:25.731Z,8.86
2018-03-23T18:45:53.277Z,8.84
2018-03-23T18:57:26.977Z,8.73
2018-03-23T18:59:54.544Z,8.72
2018-03-23T19:02:22.593Z,8.70
2018-03-23T19:13:37.818Z,8.64
2018-03-23T19:16:05.470Z,8.63
2018-03-23T19:18:33.016Z,8.61
2018-03-23T19:30:30.173Z,8.54
2018-03-23T19:32:57.742Z,8.53
2018-03-23T19:35:25.379Z,8.52
2018-03-23T19:46:59.968Z,8.45
2018-03-23T19:49:27.449Z,8.44
2018-03-23T19:51:54.983Z,8.44
2018-03-23T19:54:22.440Z,8.43
2018-03-23T19:56:51.140Z,8.43
2018-03-23T20:04:30.556Z,8.42
2018-03-23T20:06:58.055Z,8.42
2018-03-23T20:09:25.572Z,8.41
2018-03-23T20:11:53.081Z,8.40
2018-03-23T20:14:23.461Z,8.40
2018-03-23T20:22:04.431Z,8.38
2018-03-23T20:24:31.914Z,8.38
2018-03-23T20:27:04.955Z,8.38
2018-03-23T20:29:32.461Z,8.37
2018-03-23T20:35:02.285Z,8.36
2018-03-23T20:37:33.613Z,8.37
2018-03-23T20:40:02.072Z,8.37
2018-03-23T20:42:29.565Z,8.38
2018-03-23T20:44:57.089Z,8.36
2018-03-23T20:47:26.650Z,8.36
2018-03-23T20:55:06.637Z,8.36
2018-03-23T20:57:34.163Z,8.37
2018-03-23T21:00:01.666Z,8.36
2018-03-23T21:02:29.168Z,8.36
2018-03-23T21:04:58.802Z,8.36
2018-03-23T21:12:39.118Z,8.36
2018-03-23T21:15:06.637Z,8.35
2018-03-23T21:17:34.129Z,8.36
2018-03-23T21:20:01.629Z,8.35
2018-03-23T21:22:30.083Z,8.35
2018-03-23T21:30:03.039Z,8.36
2018-03-23T21:32:30.511Z,8.36
2018-03-23T21:34:58.005Z,8.36
2018-03-23T21:37:25.495Z,8.36
2018-03-23T21:42:32.558Z,8.37
2018-03-23T21:45:06.449Z,8.38
2018-03-23T21:47:37.438Z,8.37
2018-03-23T21:50:04.982Z,8.38
2018-03-23T21:52:32.497Z,8.40
2018-03-23T21:54:59.984Z,8.41
2018-03-23T21:57:29.511Z,8.41
2018-03-23T21:59:57.904Z,8.42
2018-03-23T22:04:59.289Z,8.43
2018-03-23T22:07:26.779Z,8.43
2018-03-23T22:09:54.304Z,8.43
2018-03-23T22:12:21.797Z,8.43
2018-03-23T22:14:54.280Z,8.44
2018-03-23T22:20:03.019Z,8.44
2018-03-23T22:22:31.364Z,8.44
2018-03-23T22:24:58.856Z,8.43
2018-03-23T22:27:26.376Z,8.43
2018-03-23T22:29:53.881Z,8.42
2018-03-23T22:34:58.503Z,8.43
2018-03-23T22:37:30.329Z,8.41
2018-03-23T22:39:58.908Z,8.41
2018-03-23T22:42:26.386Z,8.39
2018-03-23T22:44:53.862Z,8.40
2018-03-23T22:47:21.371Z,8.40
2018-03-23T22:49:51.382Z,8.40
2018-03-23T22:52:18.872Z,8.39
2018-03-23T22:54:47.177Z,8.39
2018-03-23T22:57:15.493Z,8.38
2018-03-23T22:59:42.973Z,8.38
2018-03-23T23:02:10.465Z,8.39
2018-03-23T23:04:37.936Z,8.40
2018-03-23T23:07:06.322Z,8.42
2018-03-23T23:09:35.135Z,8.43
2018-03-23T23:12:03.421Z,8.45
2018-03-23T23:14:31.304Z,8.46
2018-03-23T23:16:58.803Z,8.48
2018-03-23T23:19:26.303Z,8.49
2018-03-23T23:21:53.816Z,8.51
2018-03-23T23:24:26.356Z,8.53
2018-03-23T23:26:57.501Z,8.54
2018-03-23T23:29:29.288Z,8.55
2018-03-23T23:32:01.365Z,8.57
2018-03-23T23:34:28.859Z,8.57
2018-03-23T23:36:56.340Z,8.58
2018-03-23T23:39:23.836Z,8.59
2018-03-23T23:41:51.379Z,8.59
2018-03-23T23:44:21.412Z,8.59
2018-03-23T23:49:29.495Z,8.59
2018-03-23T23:51:57.072Z,8.58
2018-03-23T23:54:24.581Z,8.58
2018-03-23T23:56:52.118Z,8.57
